createdAt,value
2023-04-14T00:00:13.387Z,841.53
2023-04-14T00:01:13.400Z,841.51
2023-04-14T00:02:13.421Z,841.53
2023-04-14T00:03:13.660Z,841.54
2023-04-14T00:04:13.504Z,841.49
2023-04-14T00:05:13.443Z,841.52
2023-04-14T00:06:13.321Z,841.55
2023-04-14T00:07:13.353Z,841.56
2023-04-14T00:08:13.313Z,841.58
2023-04-14T00:09:13.305Z,841.53
2023-04-14T00:10:13.282Z,841.51
2023-04-14T00:11:13.270Z,841.52
2023-04-14T00:12:13.281Z,841.56
2023-04-14T00:13:13.305Z,841.52
2023-04-14T00:14:13.238Z,841.45
2023-04-14T00:15:13.231Z,841.41
2023-04-14T00:16:13.220Z,841.47
2023-04-14T00:17:13.402Z,841.47
2023-04-14T00:18:13.221Z,841.56
2023-04-14T00:19:13.221Z,841.57
2023-04-14T00:20:13.180Z,841.62
2023-04-14T00:21:13.169Z,841.62
2023-04-14T00:22:13.155Z,841.57
2023-04-14T00:23:13.148Z,841.59
2023-04-14T00:24:13.145Z,841.63
2023-04-14T00:25:13.177Z,841.60
2023-04-14T00:26:13.114Z,841.60
2023-04-14T00:27:13.111Z,841.61
2023-04-14T00:28:13.132Z,841.58
2023-04-14T00:29:13.084Z,841.57
2023-04-14T00:30:13.071Z,841.60
2023-04-14T00:31:13.158Z,841.62
2023-04-14T00:32:13.056Z,841.63
2023-04-14T00:33:13.042Z,841.60
2023-04-14T00:34:13.047Z,841.65
2023-04-14T00:35:13.019Z,841.62
2023-04-14T00:36:13.008Z,841.69
2023-04-14T00:37:13.029Z,841.65
2023-04-14T00:38:12.990Z,841.70
2023-04-14T00:39:12.978Z,841.67
2023-04-14T00:40:13.015Z,841.68
2023-04-14T00:41:12.963Z,841.67
2023-04-14T00:42:12.946Z,841.64
2023-04-14T00:43:12.957Z,841.65
2023-04-14T00:44:12.961Z,841.64
2023-04-14T00:45:12.910Z,841.64
2023-04-14T00:46:12.948Z,841.65
2023-04-14T00:47:12.893Z,841.69
2023-04-14T00:48:12.880Z,841.70
2023-04-14T00:49:12.892Z,841.68
2023-04-14T00:50:12.854Z,841.66
2023-04-14T00:51:12.863Z,841.62
2023-04-14T00:52:12.852Z,841.66
2023-04-14T00:53:12.829Z,841.64
2023-04-14T00:54:12.817Z,841.66
2023-04-14T00:55:12.838Z,841.64
2023-04-14T00:56:12.794Z,841.66
2023-04-14T00:57:12.808Z,841.67
2023-04-14T00:58:12.777Z,841.66
2023-04-14T00:59:12.767Z,841.66
2023-04-14T01:00:12.785Z,841.70
2023-04-14T01:01:12.792Z,841.70
2023-04-14T01:02:12.801Z,841.67
2023-04-14T01:03:12.883Z,841.69
2023-04-14T01:04:12.750Z,841.66
2023-04-14T01:05:12.850Z,841.68
2023-04-14T01:06:12.690Z,841.68
2023-04-14T01:07:12.728Z,841.62
2023-04-14T01:08:12.700Z,841.61
2023-04-14T01:09:12.663Z,841.59
2023-04-14T01:10:12.678Z,841.60
2023-04-14T01:11:12.643Z,841.51
2023-04-14T01:12:12.632Z,841.50
2023-04-14T01:13:12.681Z,841.53
2023-04-14T01:14:12.610Z,841.51
2023-04-14T01:15:12.643Z,841.56
2023-04-14T01:16:12.628Z,841.54
2023-04-14T01:17:12.580Z,841.57
2023-04-14T01:18:12.578Z,841.60
2023-04-14T01:19:12.591Z,841.62
2023-04-14T01:20:12.556Z,841.62
2023-04-14T01:21:12.549Z,841.62
2023-04-14T01:22:12.528Z,841.64
2023-04-14T01:23:12.530Z,841.62
2023-04-14T01:24:12.519Z,841.65
2023-04-14T01:25:12.549Z,841.61
2023-04-14T01:26:12.496Z,841.65
2023-04-14T01:27:12.479Z,841.64
2023-04-14T01:28:12.469Z,841.63
2023-04-14T01:29:12.459Z,841.69
2023-04-14T01:30:12.464Z,841.63
2023-04-14T01:31:12.514Z,841.68
2023-04-14T01:32:12.441Z,841.71
2023-04-14T01:33:12.411Z,841.68
2023-04-14T01:34:12.401Z,841.70
2023-04-14T01:35:12.408Z,841.69
2023-04-14T01:36:12.386Z,841.70
2023-04-14T01:37:12.398Z,841.71
2023-04-14T01:38:12.363Z,841.73
2023-04-14T01:39:12.359Z,841.68
2023-04-14T01:40:12.353Z,841.69
2023-04-14T01:41:12.333Z,841.66
2023-04-14T01:42:12.318Z,841.61
2023-04-14T01:43:12.333Z,841.66
2023-04-14T01:44:12.299Z,841.66
2023-04-14T01:45:12.304Z,841.69
2023-04-14T01:46:12.348Z,841.61
2023-04-14T01:47:12.269Z,841.63
2023-04-14T01:48:12.375Z,841.66
2023-04-14T01:49:12.319Z,841.66
2023-04-14T01:50:12.257Z,841.68
2023-04-14T01:51:12.237Z,841.65
2023-04-14T01:52:12.215Z,841.67
2023-04-14T01:53:12.204Z,841.70
2023-04-14T01:54:12.193Z,841.71
2023-04-14T01:55:12.220Z,841.71
2023-04-14T01:56:12.182Z,841.71
2023-04-14T01:57:12.169Z,841.69
2023-04-14T01:58:12.162Z,841.68
2023-04-14T01:59:12.140Z,841.66
2023-04-14T02:00:12.131Z,841.69
2023-04-14T02:01:12.196Z,841.67
2023-04-14T02:02:12.153Z,841.65
2023-04-14T02:03:12.163Z,841.63
2023-04-14T02:04:12.174Z,841.68
2023-04-14T02:05:12.076Z,841.65
2023-04-14T02:06:12.082Z,841.62
2023-04-14T02:07:12.090Z,841.60
2023-04-14T02:08:12.057Z,841.62
2023-04-14T02:09:12.033Z,841.61
2023-04-14T02:10:12.027Z,841.64
2023-04-14T02:11:12.013Z,841.62
2023-04-14T02:12:12.018Z,841.59
2023-04-14T02:13:12.032Z,841.62
2023-04-14T02:14:11.993Z,841.61
2023-04-14T02:15:11.996Z,841.60
2023-04-14T02:16:12.029Z,841.56
2023-04-14T02:17:11.953Z,841.53
2023-04-14T02:18:11.958Z,841.53
2023-04-14T02:19:11.962Z,841.53
2023-04-14T02:20:11.957Z,841.56
2023-04-14T02:21:11.919Z,841.50
2023-04-14T02:22:11.907Z,841.52
2023-04-14T02:23:11.896Z,841.51
2023-04-14T02:24:11.888Z,841.48
2023-04-14T02:25:11.893Z,841.47
2023-04-14T02:26:11.854Z,841.46
2023-04-14T02:27:11.871Z,841.51
2023-04-14T02:28:11.844Z,841.50
2023-04-14T02:29:11.829Z,841.48
2023-04-14T02:30:11.814Z,841.41
2023-04-14T02:31:11.890Z,841.38
2023-04-14T02:32:11.817Z,841.47
2023-04-14T02:33:11.789Z,841.45
2023-04-14T02:34:11.792Z,841.45
2023-04-14T02:35:11.754Z,841.45
2023-04-14T02:36:11.781Z,841.41
2023-04-14T02:37:11.774Z,841.53
2023-04-14T02:38:11.729Z,841.50
2023-04-14T02:39:11.724Z,841.54
2023-04-14T02:40:11.737Z,841.54
2023-04-14T02:41:11.696Z,841.54
2023-04-14T02:42:11.696Z,841.54
2023-04-14T02:43:11.703Z,841.56
2023-04-14T02:44:11.662Z,841.60
2023-04-14T02:45:11.646Z,841.62
2023-04-14T02:46:11.700Z,841.64
2023-04-14T02:47:11.632Z,841.68
2023-04-14T02:48:11.623Z,841.64
2023-04-14T02:49:12.970Z,841.71
2023-04-14T02:50:11.598Z,841.70
2023-04-14T02:51:11.595Z,841.75
2023-04-14T02:52:11.597Z,841.67
2023-04-14T02:53:11.564Z,841.71
2023-04-14T02:54:11.564Z,841.70
2023-04-14T02:55:11.600Z,841.75
2023-04-14T02:56:11.542Z,841.75
2023-04-14T02:57:11.535Z,841.77
2023-04-14T02:58:11.516Z,841.71
2023-04-14T02:59:11.504Z,841.74
2023-04-14T03:00:11.503Z,841.73
2023-04-14T03:01:11.566Z,841.76
2023-04-14T03:02:11.552Z,841.75
2023-04-14T03:03:11.560Z,841.72
2023-04-14T03:04:11.536Z,841.73
2023-04-14T03:05:11.438Z,841.73
2023-04-14T03:06:11.441Z,841.76
2023-04-14T03:07:11.452Z,841.71
2023-04-14T03:08:11.440Z,841.71
2023-04-14T03:09:11.396Z,841.74
2023-04-14T03:10:11.396Z,841.69
2023-04-14T03:11:11.380Z,841.74
2023-04-14T03:12:11.380Z,841.70
2023-04-14T03:13:11.394Z,841.69
2023-04-14T03:14:11.362Z,841.73
2023-04-14T03:15:11.342Z,841.74
2023-04-14T03:16:11.377Z,841.72
2023-04-14T03:17:11.315Z,841.75
2023-04-14T03:18:11.309Z,841.69
2023-04-14T03:19:11.340Z,841.68
2023-04-14T03:20:11.286Z,841.66
2023-04-14T03:21:11.283Z,841.66
2023-04-14T03:22:11.280Z,841.69
2023-04-14T03:23:11.248Z,841.65
2023-04-14T03:24:11.262Z,841.66
2023-04-14T03:25:11.359Z,841.65
2023-04-14T03:26:11.233Z,841.61
2023-04-14T03:27:11.206Z,841.70
2023-04-14T03:28:11.199Z,841.66
2023-04-14T03:29:11.195Z,841.65
2023-04-14T03:30:11.178Z,841.69
2023-04-14T03:31:11.231Z,841.72
2023-04-14T03:32:11.164Z,841.74
2023-04-14T03:33:11.142Z,841.71
2023-04-14T03:34:11.133Z,841.69
2023-04-14T03:35:11.129Z,841.66
2023-04-14T03:36:11.124Z,841.62
2023-04-14T03:37:11.129Z,841.65
2023-04-14T03:38:11.091Z,841.69
2023-04-14T03:39:11.081Z,841.67
2023-04-14T03:40:11.112Z,841.64
2023-04-14T03:41:11.084Z,841.68
2023-04-14T03:42:11.052Z,841.62
2023-04-14T03:43:11.080Z,841.63
2023-04-14T03:44:11.028Z,841.64
2023-04-14T03:45:11.020Z,841.65
2023-04-14T03:46:11.093Z,841.66
2023-04-14T03:47:11.022Z,841.67
2023-04-14T03:48:10.986Z,841.67
2023-04-14T03:49:11.015Z,841.66
2023-04-14T03:50:10.965Z,841.67
2023-04-14T03:51:10.970Z,841.69
2023-04-14T03:52:10.943Z,841.66
2023-04-14T03:53:10.929Z,841.63
2023-04-14T03:54:10.922Z,841.58
2023-04-14T03:55:10.936Z,841.63
2023-04-14T03:56:10.939Z,841.64
2023-04-14T03:57:10.889Z,841.68
2023-04-14T03:58:10.881Z,841.68
2023-04-14T03:59:10.876Z,841.74
2023-04-14T04:00:10.858Z,841.69
2023-04-14T04:01:10.886Z,841.64
2023-04-14T04:02:10.999Z,841.72
2023-04-14T04:03:11.101Z,841.71
2023-04-14T04:04:10.876Z,841.67
2023-04-14T04:05:10.812Z,841.66
2023-04-14T04:06:10.811Z,841.69
2023-04-14T04:07:10.846Z,841.71
2023-04-14T04:08:10.784Z,841.68
2023-04-14T04:09:10.759Z,841.69
2023-04-14T04:10:10.750Z,841.70
2023-04-14T04:11:10.736Z,841.67
2023-04-14T04:12:10.748Z,841.67
2023-04-14T04:13:10.782Z,841.66
2023-04-14T04:14:10.729Z,841.68
2023-04-14T04:15:10.693Z,841.72
2023-04-14T04:16:10.730Z,841.73
2023-04-14T04:17:10.675Z,841.72
2023-04-14T04:18:10.690Z,841.71
2023-04-14T04:19:10.660Z,841.73
2023-04-14T04:20:10.640Z,841.70
2023-04-14T04:21:10.627Z,841.75
2023-04-14T04:22:10.630Z,841.73
2023-04-14T04:23:10.620Z,841.75
2023-04-14T04:24:10.628Z,841.73
2023-04-14T04:25:10.596Z,841.69
2023-04-14T04:26:10.576Z,841.70
2023-04-14T04:27:24.321Z,841.69
2023-04-14T04:28:11.573Z,841.67
2023-04-14T04:29:10.547Z,841.74
2023-04-14T04:30:10.596Z,841.69
2023-04-14T04:31:10.529Z,841.75
2023-04-14T04:32:10.547Z,841.76
2023-04-14T04:33:10.544Z,841.76
2023-04-14T04:34:10.505Z,841.75
2023-04-14T04:35:10.482Z,841.76
2023-04-14T04:36:10.508Z,841.76
2023-04-14T04:37:10.467Z,841.74
2023-04-14T04:38:10.450Z,841.77
2023-04-14T04:39:10.462Z,841.76
2023-04-14T04:40:10.434Z,841.78
2023-04-14T04:41:10.425Z,841.78
2023-04-14T04:42:10.442Z,841.77
2023-04-14T04:43:10.391Z,841.79
2023-04-14T04:44:10.408Z,841.77
2023-04-14T04:45:10.372Z,841.79
2023-04-14T04:46:10.425Z,841.79
2023-04-14T04:47:10.366Z,841.86
2023-04-14T04:48:10.416Z,841.82
2023-04-14T04:49:10.325Z,841.84
2023-04-14T04:50:10.318Z,841.85
2023-04-14T04:51:10.307Z,841.86
2023-04-14T04:52:10.334Z,841.88
2023-04-14T04:53:10.286Z,841.89
2023-04-14T04:54:10.310Z,841.87
2023-04-14T04:55:10.262Z,841.91
2023-04-14T04:56:10.267Z,841.90
2023-04-14T04:57:12.005Z,841.94
2023-04-14T04:58:10.255Z,841.93
2023-04-14T04:59:10.219Z,841.95
2023-04-14T05:00:10.243Z,841.98
2023-04-14T05:01:10.196Z,842.00
2023-04-14T05:02:10.245Z,842.04
2023-04-14T05:03:10.265Z,842.00
2023-04-14T05:04:10.192Z,841.97
2023-04-14T05:05:10.155Z,841.96
2023-04-14T05:06:10.213Z,841.98
2023-04-14T05:07:10.135Z,842.01
2023-04-14T05:08:11.412Z,841.99
2023-04-14T05:09:10.120Z,841.99
2023-04-14T05:10:10.114Z,841.97
2023-04-14T05:11:10.091Z,842.00
2023-04-14T05:12:10.117Z,841.97
2023-04-14T05:13:10.072Z,842.03
2023-04-14T05:14:10.081Z,842.02
2023-04-14T05:15:10.052Z,842.03
2023-04-14T05:16:10.106Z,842.02
2023-04-14T05:17:10.029Z,842.10
2023-04-14T05:18:10.072Z,842.07
2023-04-14T05:19:10.022Z,842.05
2023-04-14T05:20:10.017Z,842.07
2023-04-14T05:21:09.987Z,842.11
2023-04-14T05:22:09.979Z,842.11
2023-04-14T05:23:09.982Z,842.08
2023-04-14T05:24:09.973Z,842.16
2023-04-14T05:25:09.948Z,842.15
2023-04-14T05:26:31.097Z,842.13
2023-04-14T05:27:13.897Z,842.15
2023-04-14T05:28:09.914Z,842.18
2023-04-14T05:29:09.904Z,842.10
2023-04-14T05:30:09.933Z,842.11
2023-04-14T05:31:09.954Z,842.12
2023-04-14T05:32:09.900Z,842.18
2023-04-14T05:33:09.901Z,842.22
2023-04-14T05:34:09.866Z,842.22
2023-04-14T05:35:09.833Z,842.22
2023-04-14T05:36:09.873Z,842.26
2023-04-14T05:37:09.814Z,842.28
2023-04-14T05:38:09.803Z,842.28
2023-04-14T05:39:09.817Z,842.26
2023-04-14T05:40:09.781Z,842.29
2023-04-14T05:41:09.769Z,842.32
2023-04-14T05:42:09.832Z,842.31
2023-04-14T05:43:09.746Z,842.37
2023-04-14T05:44:09.733Z,842.35
2023-04-14T05:45:09.755Z,842.31
2023-04-14T05:46:09.772Z,842.28
2023-04-14T05:47:09.707Z,842.31
2023-04-14T05:48:09.787Z,842.34
2023-04-14T05:49:09.694Z,842.35
2023-04-14T05:50:09.670Z,842.41
2023-04-14T05:51:09.673Z,842.40
2023-04-14T05:52:09.647Z,842.43
2023-04-14T05:53:09.642Z,842.48
2023-04-14T05:54:09.683Z,842.42
2023-04-14T05:55:09.616Z,842.42
2023-04-14T05:56:09.605Z,842.41
2023-04-14T05:57:09.595Z,842.43
2023-04-14T05:58:09.582Z,842.38
2023-04-14T05:59:09.578Z,842.46
2023-04-14T06:00:09.630Z,842.44
2023-04-14T06:01:09.552Z,842.41
2023-04-14T06:02:09.600Z,842.45
2023-04-14T06:03:09.706Z,842.49
2023-04-14T06:04:10.145Z,842.43
2023-04-14T06:05:09.556Z,842.43
2023-04-14T06:06:09.552Z,842.45
2023-04-14T06:07:09.490Z,842.45
2023-04-14T06:08:09.477Z,842.38
2023-04-14T06:09:09.481Z,842.41
2023-04-14T06:10:09.468Z,842.36
2023-04-14T06:11:09.450Z,842.31
2023-04-14T06:12:09.486Z,842.34
2023-04-14T06:13:09.421Z,842.38
2023-04-14T06:14:09.411Z,842.36
2023-04-14T06:15:09.403Z,842.36
2023-04-14T06:16:09.440Z,842.39
2023-04-14T06:17:09.396Z,842.39
2023-04-14T06:18:09.398Z,842.43
2023-04-14T06:19:09.362Z,842.40
2023-04-14T06:20:09.373Z,842.39
2023-04-14T06:21:09.334Z,842.37
2023-04-14T06:22:09.335Z,842.37
2023-04-14T06:23:09.315Z,842.37
2023-04-14T06:24:09.348Z,842.30
2023-04-14T06:25:09.331Z,842.30
2023-04-14T06:26:09.290Z,842.31
2023-04-14T06:27:09.284Z,842.35
2023-04-14T06:28:09.255Z,842.29
2023-04-14T06:29:09.250Z,842.36
2023-04-14T06:30:09.273Z,842.36
2023-04-14T06:31:09.240Z,842.35
2023-04-14T06:32:09.354Z,842.40
2023-04-14T06:33:09.262Z,842.39
2023-04-14T06:34:09.230Z,842.36
2023-04-14T06:35:16.423Z,842.42
2023-04-14T06:36:10.226Z,842.42
2023-04-14T06:37:09.164Z,842.38
2023-04-14T06:38:09.157Z,842.40
2023-04-14T06:39:09.138Z,842.37
2023-04-14T06:40:09.159Z,842.35
2023-04-14T06:41:09.132Z,842.37
2023-04-14T06:42:09.166Z,842.34
2023-04-14T06:43:09.097Z,842.37
2023-04-14T06:44:09.092Z,842.32
2023-04-14T06:45:09.073Z,842.31
2023-04-14T06:46:09.116Z,842.38
2023-04-14T06:47:09.057Z,842.36
2023-04-14T06:48:09.173Z,842.34
2023-04-14T06:49:09.040Z,842.38
2023-04-14T06:50:09.020Z,842.40
2023-04-14T06:51:09.006Z,842.40
2023-04-14T06:52:09.039Z,842.41
2023-04-14T06:53:08.986Z,842.36
2023-04-14T06:54:09.023Z,842.37
2023-04-14T06:55:08.969Z,842.36
2023-04-14T06:56:08.951Z,842.40
2023-04-14T06:57:08.942Z,842.38
2023-04-14T06:58:08.962Z,842.43
2023-04-14T06:59:08.925Z,842.43
2023-04-14T07:00:08.970Z,842.41
2023-04-14T07:01:08.926Z,842.36
2023-04-14T07:02:08.907Z,842.41
2023-04-14T07:03:08.969Z,842.41
2023-04-14T07:04:09.080Z,842.45
2023-04-14T07:05:08.962Z,842.39
2023-04-14T07:06:08.876Z,842.44
2023-04-14T07:07:08.833Z,842.44
2023-04-14T07:08:08.850Z,842.44
2023-04-14T07:09:08.814Z,842.43
2023-04-14T07:10:08.898Z,842.41
2023-04-14T07:11:08.806Z,842.40
2023-04-14T07:12:08.827Z,842.39
2023-04-14T07:13:08.773Z,842.43
2023-04-14T07:14:08.759Z,842.43
2023-04-14T07:15:08.747Z,842.42
2023-04-14T07:16:08.807Z,842.39
2023-04-14T07:17:08.728Z,842.40
2023-04-14T07:18:08.808Z,842.36
2023-04-14T07:19:08.704Z,842.39
2023-04-14T07:20:08.692Z,842.34
2023-04-14T07:21:08.687Z,842.41
2023-04-14T07:22:08.665Z,842.44
2023-04-14T07:23:08.672Z,842.43
2023-04-14T07:24:08.682Z,842.46
2023-04-14T07:25:08.684Z,842.46
2023-04-14T07:26:08.627Z,842.49
2023-04-14T07:27:08.613Z,842.49
2023-04-14T07:28:08.606Z,842.46
2023-04-14T07:29:08.622Z,842.50
2023-04-14T07:30:08.636Z,842.47
2023-04-14T07:31:08.594Z,842.49
2023-04-14T07:32:08.556Z,842.46
2023-04-14T07:33:08.588Z,842.49
2023-04-14T07:34:08.537Z,842.49
2023-04-14T07:35:08.526Z,842.55
2023-04-14T07:36:08.539Z,842.58
2023-04-14T07:37:08.506Z,842.57
2023-04-14T07:38:08.490Z,842.57
2023-04-14T07:39:08.497Z,842.57
2023-04-14T07:40:08.512Z,842.62
2023-04-14T07:41:08.464Z,842.63
2023-04-14T07:42:08.481Z,842.56
2023-04-14T07:43:08.439Z,842.53
2023-04-14T07:44:08.437Z,842.59
2023-04-14T07:45:08.421Z,842.60
2023-04-14T07:46:08.508Z,842.64
2023-04-14T07:47:08.408Z,842.65
2023-04-14T07:48:08.500Z,842.67
2023-04-14T07:49:08.388Z,842.68
2023-04-14T07:50:08.365Z,842.71
2023-04-14T07:51:08.358Z,842.68
2023-04-14T07:52:08.346Z,842.76
2023-04-14T07:53:08.350Z,842.75
2023-04-14T07:54:08.361Z,842.78
2023-04-14T07:55:08.317Z,842.74
2023-04-14T07:56:08.321Z,842.74
2023-04-14T07:57:08.298Z,842.74
2023-04-14T07:58:08.280Z,842.75
2023-04-14T07:59:08.294Z,842.76
2023-04-14T08:00:08.297Z,842.80
2023-04-14T08:01:08.288Z,842.79
2023-04-14T08:02:08.293Z,842.77
2023-04-14T08:03:08.564Z,842.78
2023-04-14T08:04:08.391Z,842.81
2023-04-14T08:05:08.254Z,842.81
2023-04-14T08:06:08.248Z,842.79
2023-04-14T08:07:08.251Z,842.83
2023-04-14T08:08:08.172Z,842.81
2023-04-14T08:09:08.159Z,842.91
2023-04-14T08:10:08.145Z,842.90
2023-04-14T08:11:08.140Z,842.87
2023-04-14T08:12:08.160Z,842.88
2023-04-14T08:13:08.141Z,842.87
2023-04-14T08:14:08.111Z,842.89
2023-04-14T08:15:08.094Z,842.91
2023-04-14T08:16:08.127Z,842.94
2023-04-14T08:17:08.075Z,842.98
2023-04-14T08:18:08.125Z,842.99
2023-04-14T08:19:08.060Z,843.04
2023-04-14T08:20:08.054Z,843.06
2023-04-14T08:21:08.027Z,842.97
2023-04-14T08:22:08.026Z,843.01
2023-04-14T08:23:08.023Z,843.04
2023-04-14T08:24:08.043Z,843.04
2023-04-14T08:25:07.986Z,843.07
2023-04-14T08:26:07.988Z,843.11
2023-04-14T08:27:07.978Z,843.13
2023-04-14T08:28:07.968Z,843.14
2023-04-14T08:29:07.961Z,843.15
2023-04-14T08:30:09.464Z,843.19
2023-04-14T08:31:07.938Z,843.18
2023-04-14T08:32:07.968Z,843.23
2023-04-14T08:33:07.936Z,843.20
2023-04-14T08:34:07.904Z,843.21
2023-04-14T08:35:38.397Z,843.19
2023-04-14T08:36:08.906Z,843.21
2023-04-14T08:37:07.941Z,843.26
2023-04-14T08:38:07.853Z,843.24
2023-04-14T08:39:07.831Z,843.25
2023-04-14T08:40:07.840Z,843.26
2023-04-14T08:41:07.826Z,843.29
2023-04-14T08:42:07.848Z,843.34
2023-04-14T08:43:07.793Z,843.29
2023-04-14T08:44:07.802Z,843.32
2023-04-14T08:45:07.783Z,843.36
2023-04-14T08:46:07.805Z,843.34
2023-04-14T08:47:07.748Z,843.33
2023-04-14T08:48:07.790Z,843.35
2023-04-14T08:49:07.739Z,843.32
2023-04-14T08:50:07.744Z,843.35
2023-04-14T08:51:07.786Z,843.37
2023-04-14T08:52:07.705Z,843.42
2023-04-14T08:53:07.698Z,843.39
2023-04-14T08:54:07.708Z,843.40
2023-04-14T08:55:07.680Z,843.37
2023-04-14T08:56:07.666Z,843.40
2023-04-14T08:57:07.658Z,843.40
2023-04-14T08:58:07.652Z,843.42
2023-04-14T08:59:07.712Z,843.43
2023-04-14T09:00:07.678Z,843.45
2023-04-14T09:01:07.718Z,843.50
2023-04-14T09:02:07.791Z,843.52
2023-04-14T09:03:07.818Z,843.59
2023-04-14T09:04:08.234Z,843.61
2023-04-14T09:05:07.562Z,843.53
2023-04-14T09:06:07.583Z,843.55
2023-04-14T09:07:07.571Z,843.54
2023-04-14T09:08:07.539Z,843.61
2023-04-14T09:09:07.657Z,843.58
2023-04-14T09:10:07.520Z,843.55
2023-04-14T09:11:07.498Z,843.63
2023-04-14T09:12:07.535Z,843.66
2023-04-14T09:13:07.492Z,843.65
2023-04-14T09:14:07.513Z,843.67
2023-04-14T09:15:07.468Z,843.66
2023-04-14T09:16:07.479Z,843.65
2023-04-14T09:17:07.529Z,843.65
2023-04-14T09:18:07.473Z,843.64
2023-04-14T09:19:08.023Z,843.61
2023-04-14T09:20:36.655Z,843.68
2023-04-14T09:21:50.330Z,843.71
2023-04-14T09:22:08.384Z,843.69
2023-04-14T09:23:07.423Z,843.69
2023-04-14T09:24:07.433Z,843.70
2023-04-14T09:25:07.360Z,843.71
2023-04-14T09:26:07.369Z,843.78
2023-04-14T09:27:07.329Z,843.77
2023-04-14T09:28:07.354Z,843.72
2023-04-14T09:29:07.348Z,843.73
2023-04-14T09:30:07.328Z,843.72
2023-04-14T09:31:07.311Z,843.73
2023-04-14T09:32:07.300Z,843.80
2023-04-14T09:33:07.493Z,843.82
2023-04-14T09:34:07.303Z,843.83
2023-04-14T09:35:07.292Z,843.80
2023-04-14T09:36:07.248Z,843.82
2023-04-14T09:37:07.220Z,843.83
2023-04-14T09:38:07.250Z,843.81
2023-04-14T09:39:07.210Z,843.87
2023-04-14T09:40:07.191Z,843.83
2023-04-14T09:41:07.193Z,843.82
2023-04-14T09:42:07.179Z,843.80
2023-04-14T09:43:07.156Z,843.83
2023-04-14T09:44:07.150Z,843.87
2023-04-14T09:45:07.134Z,843.93
2023-04-14T09:46:07.178Z,843.90
2023-04-14T09:47:07.167Z,843.93
2023-04-14T09:48:07.166Z,843.97
2023-04-14T09:49:07.158Z,843.96
2023-04-14T09:50:07.090Z,843.92
2023-04-14T09:51:07.165Z,843.97
2023-04-14T09:52:07.072Z,843.95
2023-04-14T09:53:07.074Z,843.96
2023-04-14T09:54:07.154Z,843.95
2023-04-14T09:55:07.032Z,843.94
2023-04-14T09:56:07.050Z,843.93
2023-04-14T09:57:07.031Z,843.97
2023-04-14T09:58:07.011Z,843.97
2023-04-14T09:59:07.098Z,843.91
2023-04-14T10:00:06.976Z,843.90
2023-04-14T10:01:06.989Z,843.95
2023-04-14T10:02:07.041Z,843.95
2023-04-14T10:03:07.028Z,844.02
2023-04-14T10:04:06.953Z,843.95
2023-04-14T10:05:06.988Z,843.95
2023-04-14T10:06:06.911Z,844.00
2023-04-14T10:07:06.914Z,844.04
2023-04-14T10:08:06.922Z,844.06
2023-04-14T10:09:06.880Z,844.05
2023-04-14T10:10:06.872Z,844.08
2023-04-14T10:11:06.920Z,844.03
2023-04-14T10:12:09.051Z,844.05
2023-04-14T10:13:06.844Z,844.02
2023-04-14T10:14:06.841Z,843.99
2023-04-14T10:15:06.831Z,844.00
2023-04-14T10:16:06.821Z,844.00
2023-04-14T10:17:06.815Z,844.01
2023-04-14T10:18:06.845Z,844.00
2023-04-14T10:19:07.118Z,844.03
2023-04-14T10:20:06.792Z,844.02
2023-04-14T10:21:06.750Z,844.02
2023-04-14T10:22:06.780Z,844.00
2023-04-14T10:23:06.750Z,843.99
2023-04-14T10:24:06.729Z,844.01
2023-04-14T10:25:06.711Z,844.02
2023-04-14T10:26:06.692Z,843.97
2023-04-14T10:27:06.685Z,843.96
2023-04-14T10:28:06.673Z,843.94
2023-04-14T10:29:06.710Z,843.95
2023-04-14T10:30:06.658Z,843.96
2023-04-14T10:31:06.679Z,843.94
2023-04-14T10:32:06.746Z,843.92
2023-04-14T10:33:06.636Z,843.95
2023-04-14T10:34:06.611Z,843.94
2023-04-14T10:35:06.651Z,843.94
2023-04-14T10:36:06.613Z,843.92
2023-04-14T10:37:06.578Z,843.93
2023-04-14T10:38:06.561Z,843.91
2023-04-14T10:39:06.561Z,843.91
2023-04-14T10:40:06.544Z,843.93
2023-04-14T10:41:06.562Z,843.98
2023-04-14T10:42:06.532Z,843.94
2023-04-14T10:43:06.513Z,844.03
2023-04-14T10:44:06.500Z,843.98
2023-04-14T10:45:06.504Z,843.98
2023-04-14T10:46:06.500Z,843.99
2023-04-14T10:47:06.615Z,843.95
2023-04-14T10:48:06.505Z,843.98
2023-04-14T10:49:06.459Z,843.91
2023-04-14T10:50:06.436Z,843.97
2023-04-14T10:51:06.428Z,843.90
2023-04-14T10:52:06.436Z,843.91
2023-04-14T10:53:06.420Z,843.89
2023-04-14T10:54:06.410Z,843.89
2023-04-14T10:55:06.389Z,843.92
2023-04-14T10:56:06.375Z,843.92
2023-04-14T10:57:06.362Z,843.91
2023-04-14T10:58:06.446Z,843.92
2023-04-14T10:59:06.393Z,843.92
2023-04-14T11:00:06.344Z,843.92
2023-04-14T11:01:06.372Z,843.87
2023-04-14T11:02:06.377Z,843.85
2023-04-14T11:03:06.419Z,843.83
2023-04-14T11:04:06.390Z,843.86
2023-04-14T11:05:06.327Z,843.83
2023-04-14T11:06:06.263Z,843.78
2023-04-14T11:07:06.256Z,843.77
2023-04-14T11:08:06.333Z,843.82
2023-04-14T11:09:06.234Z,843.80
2023-04-14T11:10:06.222Z,843.76
2023-04-14T11:11:06.253Z,843.78
2023-04-14T11:12:06.241Z,843.76
2023-04-14T11:13:06.204Z,843.75
2023-04-14T11:14:06.201Z,843.74
2023-04-14T11:15:06.183Z,843.71
2023-04-14T11:16:06.180Z,843.73
2023-04-14T11:17:06.195Z,843.66
2023-04-14T11:18:06.175Z,843.70
2023-04-14T11:19:06.132Z,843.67
2023-04-14T11:20:06.122Z,843.66
2023-04-14T11:21:06.112Z,843.66
2023-04-14T11:22:06.096Z,843.63
2023-04-14T11:23:06.103Z,843.67
2023-04-14T11:24:06.101Z,843.67
2023-04-14T11:25:06.087Z,843.63
2023-04-14T11:26:06.068Z,843.59
2023-04-14T11:27:06.042Z,843.60
2023-04-14T11:28:06.026Z,843.59
2023-04-14T11:29:06.042Z,843.57
2023-04-14T11:30:06.025Z,843.59
2023-04-14T11:31:06.007Z,843.57
2023-04-14T11:32:06.091Z,843.62
2023-04-14T11:33:06.014Z,843.58
2023-04-14T11:34:05.971Z,843.62
2023-04-14T11:35:05.988Z,843.60
2023-04-14T11:36:05.960Z,843.55
2023-04-14T11:37:05.950Z,843.55
2023-04-14T11:38:05.918Z,843.55
2023-04-14T11:39:05.912Z,843.56
2023-04-14T11:40:05.922Z,843.53
2023-04-14T11:41:05.947Z,843.49
2023-04-14T11:42:05.910Z,843.41
2023-04-14T11:43:05.870Z,843.42
2023-04-14T11:44:05.858Z,843.39
2023-04-14T11:45:05.855Z,843.38
2023-04-14T11:46:05.894Z,843.34
2023-04-14T11:47:05.843Z,843.36
2023-04-14T11:48:05.903Z,843.31
2023-04-14T11:49:05.802Z,843.31
2023-04-14T11:50:05.789Z,843.26
2023-04-14T11:51:05.789Z,843.29
2023-04-14T11:52:05.769Z,843.29
2023-04-14T11:53:05.774Z,843.27
2023-04-14T11:54:05.796Z,843.28
2023-04-14T11:55:05.742Z,843.29
2023-04-14T11:56:05.775Z,843.23
2023-04-14T11:57:05.718Z,843.23
2023-04-14T11:58:05.714Z,843.26
2023-04-14T11:59:05.715Z,843.28
2023-04-14T12:00:05.703Z,843.28
2023-04-14T12:01:05.676Z,843.31
2023-04-14T12:02:05.680Z,843.29
2023-04-14T12:03:05.843Z,843.30
2023-04-14T12:04:05.900Z,843.30
2023-04-14T12:05:05.838Z,843.27
2023-04-14T12:06:05.630Z,843.25
2023-04-14T12:07:05.612Z,843.23
2023-04-14T12:08:05.601Z,843.25
2023-04-14T12:09:05.592Z,843.23
2023-04-14T12:10:05.595Z,843.21
2023-04-14T12:11:05.601Z,843.23
2023-04-14T12:12:05.586Z,843.21
2023-04-14T12:13:05.547Z,843.16
2023-04-14T12:14:05.531Z,843.25
2023-04-14T12:15:05.535Z,843.17
2023-04-14T12:16:05.548Z,843.17
2023-04-14T12:17:05.537Z,843.16
2023-04-14T12:18:05.581Z,843.17
2023-04-14T12:19:05.485Z,843.16
2023-04-14T12:20:05.508Z,843.18
2023-04-14T12:21:07.286Z,843.17
2023-04-14T12:22:05.462Z,843.13
2023-04-14T12:23:05.460Z,843.14
2023-04-14T12:24:05.428Z,843.10
2023-04-14T12:25:05.416Z,843.01
2023-04-14T12:26:05.437Z,843.13
2023-04-14T12:27:05.403Z,843.10
2023-04-14T12:28:05.404Z,843.08